sensor_id;sensor_type;location;lat;lon;timestamp;temperature;humidity
77613;DHT22;66777;52.282;5.960;2023-05-10T00:01:52;12.30;97.90
77613;DHT22;66777;52.282;5.960;2023-05-10T00:04:18;12.40;98.00
77613;DHT22;66777;52.282;5.960;2023-05-10T00:06:44;12.40;97.90
77613;DHT22;66777;52.282;5.960;2023-05-10T00:09:10;12.40;98.00
77613;DHT22;66777;52.282;5.960;2023-05-10T00:11:35;12.40;97.90
77613;DHT22;66777;52.282;5.960;2023-05-10T00:14:01;12.30;97.90
77613;DHT22;66777;52.282;5.960;2023-05-10T00:16:27;12.30;97.90
77613;DHT22;66777;52.282;5.960;2023-05-10T00:18:53;12.30;97.90
77613;DHT22;66777;52.282;5.960;2023-05-10T00:21:18;12.30;97.90
77613;DHT22;66777;52.282;5.960;2023-05-10T00:23:44;12.20;97.90
77613;DHT22;66777;52.282;5.960;2023-05-10T00:26:10;12.30;97.90
77613;DHT22;66777;52.282;5.960;2023-05-10T00:28:35;12.30;97.90
77613;DHT22;66777;52.282;5.960;2023-05-10T00:31:01;12.30;97.90
77613;DHT22;66777;52.282;5.960;2023-05-10T00:33:27;12.30;97.90
77613;DHT22;66777;52.282;5.960;2023-05-10T00:35:53;12.30;97.90
77613;DHT22;66777;52.282;5.960;2023-05-10T00:38:19;12.30;97.90
77613;DHT22;66777;52.282;5.960;2023-05-10T00:40:45;12.30;97.90
77613;DHT22;66777;52.282;5.960;2023-05-10T00:43:11;12.20;97.90
77613;DHT22;66777;52.282;5.960;2023-05-10T00:45:37;12.20;97.90
77613;DHT22;66777;52.282;5.960;2023-05-10T00:48:04;12.20;97.90
77613;DHT22;66777;52.282;5.960;2023-05-10T00:50:32;12.20;97.90
77613;DHT22;66777;52.282;5.960;2023-05-10T00:52:59;12.30;97.90
77613;DHT22;66777;52.282;5.960;2023-05-10T00:55:26;12.30;97.90
77613;DHT22;66777;52.282;5.960;2023-05-10T00:57:53;12.30;97.90
77613;DHT22;66777;52.282;5.960;2023-05-10T01:00:18;12.30;97.90
77613;DHT22;66777;52.282;5.960;2023-05-10T01:02:45;12.30;98.00
77613;DHT22;66777;52.282;5.960;2023-05-10T01:05:12;12.30;98.00
77613;DHT22;66777;52.282;5.960;2023-05-10T01:07:39;12.30;97.90
77613;DHT22;66777;52.282;5.960;2023-05-10T01:10:08;12.30;97.90
77613;DHT22;66777;52.282;5.960;2023-05-10T01:12:38;12.30;97.90
77613;DHT22;66777;52.282;5.960;2023-05-10T01:15:07;12.30;97.90
77613;DHT22;66777;52.282;5.960;2023-05-10T01:17:39;12.30;97.90
77613;DHT22;66777;52.282;5.960;2023-05-10T01:20:07;12.30;98.00
77613;DHT22;66777;52.282;5.960;2023-05-10T01:36:32;12.30;97.90
77613;DHT22;66777;52.282;5.960;2023-05-10T01:42:03;12.30;97.90
77613;DHT22;66777;52.282;5.960;2023-05-10T01:44:37;12.30;98.00
77613;DHT22;66777;52.282;5.960;2023-05-10T01:47:50;12.30;98.00
77613;DHT22;66777;52.282;5.960;2023-05-10T01:50:22;12.40;98.00
77613;DHT22;66777;52.282;5.960;2023-05-10T01:52:53;12.40;98.00
77613;DHT22;66777;52.282;5.960;2023-05-10T01:55:24;12.40;97.90
77613;DHT22;66777;52.282;5.960;2023-05-10T01:58:00;12.40;98.00
77613;DHT22;66777;52.282;5.960;2023-05-10T02:00:28;12.40;98.00
77613;DHT22;66777;52.282;5.960;2023-05-10T02:02:55;12.40;98.00
77613;DHT22;66777;52.282;5.960;2023-05-10T02:05:22;12.50;98.00
77613;DHT22;66777;52.282;5.960;2023-05-10T02:07:49;12.50;98.00
77613;DHT22;66777;52.282;5.960;2023-05-10T02:10:17;12.40;97.90
77613;DHT22;66777;52.282;5.960;2023-05-10T02:12:46;12.50;98.00
77613;DHT22;66777;52.282;5.960;2023-05-10T02:15:17;12.40;98.00
77613;DHT22;66777;52.282;5.960;2023-05-10T02:17:45;12.40;98.00
77613;DHT22;66777;52.282;5.960;2023-05-10T02:20:14;12.40;98.00
77613;DHT22;66777;52.282;5.960;2023-05-10T02:22:41;12.50;98.00
77613;DHT22;66777;52.282;5.960;2023-05-10T02:25:11;12.50;98.00
77613;DHT22;66777;52.282;5.960;2023-05-10T02:27:38;12.50;98.00
77613;DHT22;66777;52.282;5.960;2023-05-10T02:30:07;12.50;98.00
77613;DHT22;66777;52.282;5.960;2023-05-10T02:32:34;12.50;98.00
77613;DHT22;66777;52.282;5.960;2023-05-10T02:35:02;12.50;98.00
77613;DHT22;66777;52.282;5.960;2023-05-10T02:37:29;12.50;98.00
77613;DHT22;66777;52.282;5.960;2023-05-10T02:39:56;12.50;98.00
77613;DHT22;66777;52.282;5.960;2023-05-10T02:42:27;12.50;98.00
77613;DHT22;66777;52.282;5.960;2023-05-10T02:45:00;12.50;98.00
77613;DHT22;66777;52.282;5.960;2023-05-10T02:47:27;12.50;98.00
77613;DHT22;66777;52.282;5.960;2023-05-10T02:49:53;12.50;98.00
77613;DHT22;66777;52.282;5.960;2023-05-10T02:52:25;12.50;98.00
77613;DHT22;66777;52.282;5.960;2023-05-10T02:54:55;12.50;98.00
77613;DHT22;66777;52.282;5.960;2023-05-10T02:57:29;12.50;98.00
77613;DHT22;66777;52.282;5.960;2023-05-10T02:59:58;12.50;98.00
77613;DHT22;66777;52.282;5.960;2023-05-10T03:02:24;12.50;98.00
77613;DHT22;66777;52.282;5.960;2023-05-10T03:04:49;12.60;98.00
77613;DHT22;66777;52.282;5.960;2023-05-10T03:07:16;12.60;98.00
77613;DHT22;66777;52.282;5.960;2023-05-10T03:09:45;12.50;98.00
77613;DHT22;66777;52.282;5.960;2023-05-10T03:19:43;12.50;98.10
77613;DHT22;66777;52.282;5.960;2023-05-10T03:22:38;12.60;98.00
77613;DHT22;66777;52.282;5.960;2023-05-10T03:25:08;12.60;98.00
77613;DHT22;66777;52.282;5.960;2023-05-10T03:27:37;12.70;98.00
77613;DHT22;66777;52.282;5.960;2023-05-10T03:30:05;12.50;98.00
77613;DHT22;66777;52.282;5.960;2023-05-10T03:32:31;12.50;98.00
77613;DHT22;66777;52.282;5.960;2023-05-10T03:34:57;12.50;98.00
77613;DHT22;66777;52.282;5.960;2023-05-10T03:37:23;12.50;98.00
77613;DHT22;66777;52.282;5.960;2023-05-10T03:39:49;12.40;97.90
77613;DHT22;66777;52.282;5.960;2023-05-10T03:42:15;12.30;97.90
77613;DHT22;66777;52.282;5.960;2023-05-10T03:44:43;12.30;97.90
77613;DHT22;66777;52.282;5.960;2023-05-10T03:47:09;12.20;97.90
77613;DHT22;66777;52.282;5.960;2023-05-10T03:49:34;12.20;97.90
77613;DHT22;66777;52.282;5.960;2023-05-10T03:52:00;12.20;97.90
77613;DHT22;66777;52.282;5.960;2023-05-10T03:54:27;12.20;97.90
77613;DHT22;66777;52.282;5.960;2023-05-10T03:56:53;12.30;97.90
77613;DHT22;66777;52.282;5.960;2023-05-10T03:59:19;12.30;97.90
77613;DHT22;66777;52.282;5.960;2023-05-10T04:01:45;12.40;98.00
77613;DHT22;66777;52.282;5.960;2023-05-10T04:04:11;12.40;98.00
77613;DHT22;66777;52.282;5.960;2023-05-10T04:06:38;12.50;98.00
77613;DHT22;66777;52.282;5.960;2023-05-10T04:09:04;12.50;98.00
77613;DHT22;66777;52.282;5.960;2023-05-10T04:11:30;12.50;98.00
77613;DHT22;66777;52.282;5.960;2023-05-10T04:13:56;12.50;98.00
77613;DHT22;66777;52.282;5.960;2023-05-10T04:16:22;12.50;98.00
77613;DHT22;66777;52.282;5.960;2023-05-10T04:18:49;12.50;98.00
77613;DHT22;66777;52.282;5.960;2023-05-10T04:21:17;12.50;98.00
77613;DHT22;66777;52.282;5.960;2023-05-10T04:23:43;12.50;98.00
77613;DHT22;66777;52.282;5.960;2023-05-10T04:26:09;12.60;98.00
77613;DHT22;66777;52.282;5.960;2023-05-10T04:28:35;12.70;98.00
77613;DHT22;66777;52.282;5.960;2023-05-10T04:31:05;12.70;98.00
77613;DHT22;66777;52.282;5.960;2023-05-10T04:33:31;12.70;98.00
77613;DHT22;66777;52.282;5.960;2023-05-10T04:35:57;12.70;98.00
77613;DHT22;66777;52.282;5.960;2023-05-10T04:38:23;12.70;98.00
77613;DHT22;66777;52.282;5.960;2023-05-10T04:40:49;12.70;98.00
77613;DHT22;66777;52.282;5.960;2023-05-10T04:43:15;12.70;98.00
77613;DHT22;66777;52.282;5.960;2023-05-10T04:45:41;12.70;98.00
77613;DHT22;66777;52.282;5.960;2023-05-10T04:48:06;12.70;98.00
77613;DHT22;66777;52.282;5.960;2023-05-10T04:50:33;12.70;98.00
77613;DHT22;66777;52.282;5.960;2023-05-10T04:52:59;12.70;98.00
77613;DHT22;66777;52.282;5.960;2023-05-10T04:55:25;12.70;98.00
77613;DHT22;66777;52.282;5.960;2023-05-10T04:57:53;12.60;98.00
77613;DHT22;66777;52.282;5.960;2023-05-10T05:00:22;12.60;98.00
77613;DHT22;66777;52.282;5.960;2023-05-10T05:02:48;12.50;98.00
77613;DHT22;66777;52.282;5.960;2023-05-10T05:05:13;12.60;98.00
77613;DHT22;66777;52.282;5.960;2023-05-10T05:07:39;12.60;98.00
77613;DHT22;66777;52.282;5.960;2023-05-10T05:10:06;12.70;98.00
77613;DHT22;66777;52.282;5.960;2023-05-10T05:12:32;12.60;98.00
77613;DHT22;66777;52.282;5.960;2023-05-10T05:14:58;12.60;98.00
77613;DHT22;66777;52.282;5.960;2023-05-10T05:17:24;12.70;98.00
77613;DHT22;66777;52.282;5.960;2023-05-10T05:19:50;12.70;98.10
77613;DHT22;66777;52.282;5.960;2023-05-10T05:22:16;12.70;98.00
77613;DHT22;66777;52.282;5.960;2023-05-10T05:24:43;12.70;98.00
77613;DHT22;66777;52.282;5.960;2023-05-10T05:27:10;12.80;98.00
77613;DHT22;66777;52.282;5.960;2023-05-10T05:29:37;12.70;98.00
77613;DHT22;66777;52.282;5.960;2023-05-10T05:32:03;12.70;98.00
77613;DHT22;66777;52.282;5.960;2023-05-10T05:34:29;12.70;98.00
77613;DHT22;66777;52.282;5.960;2023-05-10T05:36:54;12.70;98.00
77613;DHT22;66777;52.282;5.960;2023-05-10T05:39:21;12.70;98.00
77613;DHT22;66777;52.282;5.960;2023-05-10T05:41:48;12.70;98.00
77613;DHT22;66777;52.282;5.960;2023-05-10T05:44:14;12.70;98.00
77613;DHT22;66777;52.282;5.960;2023-05-10T05:46:39;12.80;98.00
77613;DHT22;66777;52.282;5.960;2023-05-10T05:49:07;12.90;98.00
77613;DHT22;66777;52.282;5.960;2023-05-10T05:51:33;13.00;98.00
77613;DHT22;66777;52.282;5.960;2023-05-10T05:54:01;13.00;98.00
77613;DHT22;66777;52.282;5.960;2023-05-10T05:56:30;13.00;98.00
77613;DHT22;66777;52.282;5.960;2023-05-10T05:58:55;13.00;98.00
77613;DHT22;66777;52.282;5.960;2023-05-10T06:01:22;13.00;98.00
77613;DHT22;66777;52.282;5.960;2023-05-10T06:03:48;12.90;98.00
77613;DHT22;66777;52.282;5.960;2023-05-10T06:06:14;12.90;98.00
77613;DHT22;66777;52.282;5.960;2023-05-10T06:08:39;12.90;98.00
77613;DHT22;66777;52.282;5.960;2023-05-10T06:11:05;12.80;98.00
77613;DHT22;66777;52.282;5.960;2023-05-10T06:13:31;12.70;98.00
77613;DHT22;66777;52.282;5.960;2023-05-10T06:15:59;12.70;98.00
77613;DHT22;66777;52.282;5.960;2023-05-10T06:18:26;12.80;98.00
77613;DHT22;66777;52.282;5.960;2023-05-10T06:20:52;12.80;98.00
77613;DHT22;66777;52.282;5.960;2023-05-10T06:23:17;12.80;98.00
77613;DHT22;66777;52.282;5.960;2023-05-10T06:25:43;12.80;98.00
77613;DHT22;66777;52.282;5.960;2023-05-10T06:28:09;12.90;98.10
77613;DHT22;66777;52.282;5.960;2023-05-10T06:30:36;12.90;98.00
77613;DHT22;66777;52.282;5.960;2023-05-10T06:33:03;12.90;98.00
77613;DHT22;66777;52.282;5.960;2023-05-10T06:35:29;12.90;98.00
77613;DHT22;66777;52.282;5.960;2023-05-10T06:37:56;12.90;98.00
77613;DHT22;66777;52.282;5.960;2023-05-10T06:40:24;12.90;98.00
77613;DHT22;66777;52.282;5.960;2023-05-10T06:42:50;12.80;98.00
77613;DHT22;66777;52.282;5.960;2023-05-10T06:45:16;12.90;98.00
77613;DHT22;66777;52.282;5.960;2023-05-10T06:47:42;12.90;98.00
77613;DHT22;66777;52.282;5.960;2023-05-10T06:50:09;12.90;98.00
77613;DHT22;66777;52.282;5.960;2023-05-10T06:52:37;13.00;98.00
77613;DHT22;66777;52.282;5.960;2023-05-10T06:55:04;13.10;98.00
77613;DHT22;66777;52.282;5.960;2023-05-10T06:57:30;13.10;98.00
77613;DHT22;66777;52.282;5.960;2023-05-10T06:59:56;13.20;98.10
77613;DHT22;66777;52.282;5.960;2023-05-10T07:02:22;13.30;98.10
77613;DHT22;66777;52.282;5.960;2023-05-10T07:04:48;13.30;98.00
77613;DHT22;66777;52.282;5.960;2023-05-10T07:07:14;13.40;98.00
77613;DHT22;66777;52.282;5.960;2023-05-10T07:09:40;13.30;98.00
77613;DHT22;66777;52.282;5.960;2023-05-10T07:12:07;13.50;98.00
77613;DHT22;66777;52.282;5.960;2023-05-10T07:14:32;13.50;98.00
77613;DHT22;66777;52.282;5.960;2023-05-10T07:16:59;13.60;98.10
77613;DHT22;66777;52.282;5.960;2023-05-10T07:19:25;13.50;98.00
77613;DHT22;66777;52.282;5.960;2023-05-10T07:21:51;13.50;98.00
77613;DHT22;66777;52.282;5.960;2023-05-10T07:24:17;13.50;98.10
77613;DHT22;66777;52.282;5.960;2023-05-10T07:26:43;13.50;98.10
77613;DHT22;66777;52.282;5.960;2023-05-10T07:29:09;13.30;98.00
77613;DHT22;66777;52.282;5.960;2023-05-10T07:31:36;13.20;98.00
77613;DHT22;66777;52.282;5.960;2023-05-10T07:34:03;13.10;98.00
77613;DHT22;66777;52.282;5.960;2023-05-10T07:36:29;13.10;98.00
77613;DHT22;66777;52.282;5.960;2023-05-10T07:38:55;13.20;98.00
77613;DHT22;66777;52.282;5.960;2023-05-10T07:41:23;13.30;98.00
77613;DHT22;66777;52.282;5.960;2023-05-10T07:43:49;13.10;98.00
77613;DHT22;66777;52.282;5.960;2023-05-10T07:46:17;13.30;98.00
77613;DHT22;66777;52.282;5.960;2023-05-10T07:48:45;13.30;98.10
77613;DHT22;66777;52.282;5.960;2023-05-10T07:51:11;13.20;98.10
77613;DHT22;66777;52.282;5.960;2023-05-10T07:53:37;13.30;98.10
77613;DHT22;66777;52.282;5.960;2023-05-10T07:56:23;13.30;98.10
77613;DHT22;66777;52.282;5.960;2023-05-10T07:58:51;13.30;98.10
77613;DHT22;66777;52.282;5.960;2023-05-10T08:01:17;13.30;98.10
77613;DHT22;66777;52.282;5.960;2023-05-10T08:03:43;13.30;98.10
77613;DHT22;66777;52.282;5.960;2023-05-10T08:06:09;13.30;98.10
77613;DHT22;66777;52.282;5.960;2023-05-10T08:08:35;13.30;98.10
77613;DHT22;66777;52.282;5.960;2023-05-10T08:11:00;13.30;98.10
77613;DHT22;66777;52.282;5.960;2023-05-10T08:13:26;13.30;98.10
77613;DHT22;66777;52.282;5.960;2023-05-10T08:15:52;13.20;98.10
77613;DHT22;66777;52.282;5.960;2023-05-10T08:18:19;13.30;98.10
77613;DHT22;66777;52.282;5.960;2023-05-10T08:20:44;13.30;98.10
77613;DHT22;66777;52.282;5.960;2023-05-10T08:23:12;13.30;98.20
77613;DHT22;66777;52.282;5.960;2023-05-10T08:25:38;13.60;98.20
77613;DHT22;66777;52.282;5.960;2023-05-10T08:28:04;13.90;98.20
77613;DHT22;66777;52.282;5.960;2023-05-10T08:30:30;14.20;98.30
77613;DHT22;66777;52.282;5.960;2023-05-10T08:32:56;14.40;98.20
77613;DHT22;66777;52.282;5.960;2023-05-10T08:35:21;14.40;98.20
77613;DHT22;66777;52.282;5.960;2023-05-10T08:37:48;14.30;98.20
77613;DHT22;66777;52.282;5.960;2023-05-10T08:40:14;14.30;98.20
77613;DHT22;66777;52.282;5.960;2023-05-10T08:42:45;14.30;98.20
77613;DHT22;66777;52.282;5.960;2023-05-10T08:45:13;14.20;98.20
77613;DHT22;66777;52.282;5.960;2023-05-10T08:47:41;14.10;98.20
77613;DHT22;66777;52.282;5.960;2023-05-10T08:50:07;14.00;98.20
77613;DHT22;66777;52.282;5.960;2023-05-10T08:52:38;14.00;98.20
77613;DHT22;66777;52.282;5.960;2023-05-10T08:55:06;13.90;98.20
77613;DHT22;66777;52.282;5.960;2023-05-10T08:57:33;13.80;98.10
77613;DHT22;66777;52.282;5.960;2023-05-10T09:00:01;13.70;98.10
77613;DHT22;66777;52.282;5.960;2023-05-10T09:02:27;13.70;98.10
77613;DHT22;66777;52.282;5.960;2023-05-10T09:04:54;13.90;98.20
77613;DHT22;66777;52.282;5.960;2023-05-10T09:07:22;14.00;98.20
77613;DHT22;66777;52.282;5.960;2023-05-10T09:09:49;14.10;98.20
77613;DHT22;66777;52.282;5.960;2023-05-10T09:12:15;14.20;98.10
77613;DHT22;66777;52.282;5.960;2023-05-10T09:14:42;14.30;98.10
77613;DHT22;66777;52.282;5.960;2023-05-10T09:17:11;14.30;98.10
77613;DHT22;66777;52.282;5.960;2023-05-10T09:19:37;14.20;98.10
77613;DHT22;66777;52.282;5.960;2023-05-10T09:22:04;14.10;98.00
77613;DHT22;66777;52.282;5.960;2023-05-10T09:24:30;14.20;98.00
77613;DHT22;66777;52.282;5.960;2023-05-10T09:26:57;14.20;98.00
77613;DHT22;66777;52.282;5.960;2023-05-10T09:29:23;14.20;98.10
77613;DHT22;66777;52.282;5.960;2023-05-10T09:31:51;14.00;98.00
77613;DHT22;66777;52.282;5.960;2023-05-10T09:34:18;14.00;98.00
77613;DHT22;66777;52.282;5.960;2023-05-10T09:37:01;13.90;98.00
77613;DHT22;66777;52.282;5.960;2023-05-10T09:39:37;13.90;98.00
77613;DHT22;66777;52.282;5.960;2023-05-10T09:42:05;13.90;98.00
77613;DHT22;66777;52.282;5.960;2023-05-10T09:44:32;13.90;98.00
77613;DHT22;66777;52.282;5.960;2023-05-10T09:46:58;13.70;98.00
77613;DHT22;66777;52.282;5.960;2023-05-10T09:49:24;13.90;98.00
77613;DHT22;66777;52.282;5.960;2023-05-10T09:52:04;14.00;98.20
77613;DHT22;66777;52.282;5.960;2023-05-10T09:54:30;14.30;98.10
77613;DHT22;66777;52.282;5.960;2023-05-10T09:56:57;14.30;98.10
77613;DHT22;66777;52.282;5.960;2023-05-10T09:59:26;14.30;98.00
77613;DHT22;66777;52.282;5.960;2023-05-10T10:01:56;14.30;98.00
77613;DHT22;66777;52.282;5.960;2023-05-10T10:04:23;14.30;97.90
77613;DHT22;66777;52.282;5.960;2023-05-10T10:07:10;14.40;97.90
77613;DHT22;66777;52.282;5.960;2023-05-10T10:09:36;14.50;98.00
77613;DHT22;66777;52.282;5.960;2023-05-10T10:12:02;14.50;98.00
77613;DHT22;66777;52.282;5.960;2023-05-10T10:14:29;14.40;97.80
77613;DHT22;66777;52.282;5.960;2023-05-10T10:16:55;14.40;97.80
77613;DHT22;66777;52.282;5.960;2023-05-10T10:19:22;14.70;97.90
77613;DHT22;66777;52.282;5.960;2023-05-10T10:21:49;14.70;97.90
77613;DHT22;66777;52.282;5.960;2023-05-10T10:24:15;15.00;98.00
77613;DHT22;66777;52.282;5.960;2023-05-10T10:26:42;15.20;98.00
77613;DHT22;66777;52.282;5.960;2023-05-10T10:29:25;15.20;97.90
77613;DHT22;66777;52.282;5.960;2023-05-10T10:34:53;15.60;98.00
77613;DHT22;66777;52.282;5.960;2023-05-10T10:37:19;15.60;97.80
77613;DHT22;66777;52.282;5.960;2023-05-10T10:39:48;15.60;97.70
77613;DHT22;66777;52.282;5.960;2023-05-10T10:42:53;15.60;97.40
77613;DHT22;66777;52.282;5.960;2023-05-10T10:45:20;15.60;96.90
77613;DHT22;66777;52.282;5.960;2023-05-10T10:47:46;15.50;97.40
77613;DHT22;66777;52.282;5.960;2023-05-10T10:50:13;15.80;97.70
77613;DHT22;66777;52.282;5.960;2023-05-10T10:52:45;15.70;97.70
77613;DHT22;66777;52.282;5.960;2023-05-10T11:00:25;15.30;97.60
77613;DHT22;66777;52.282;5.960;2023-05-10T11:03:13;15.10;97.50
77613;DHT22;66777;52.282;5.960;2023-05-10T11:05:42;15.20;97.50
77613;DHT22;66777;52.282;5.960;2023-05-10T11:10:34;15.50;97.70
77613;DHT22;66777;52.282;5.960;2023-05-10T11:13:07;15.60;97.80
77613;DHT22;66777;52.282;5.960;2023-05-10T11:15:38;16.00;97.90
77613;DHT22;66777;52.282;5.960;2023-05-10T11:18:25;16.50;98.00
77613;DHT22;66777;52.282;5.960;2023-05-10T11:20:56;17.20;98.00
77613;DHT22;66777;52.282;5.960;2023-05-10T11:23:23;17.60;98.00
77613;DHT22;66777;52.282;5.960;2023-05-10T11:25:49;17.50;97.70
77613;DHT22;66777;52.282;5.960;2023-05-10T11:28:19;17.40;97.70
77613;DHT22;66777;52.282;5.960;2023-05-10T11:30:45;17.30;97.50
77613;DHT22;66777;52.282;5.960;2023-05-10T11:33:16;17.20;97.30
77613;DHT22;66777;52.282;5.960;2023-05-10T11:35:42;17.00;97.40
77613;DHT22;66777;52.282;5.960;2023-05-10T11:38:12;16.50;97.40
77613;DHT22;66777;52.282;5.960;2023-05-10T11:40:39;16.40;97.60
77613;DHT22;66777;52.282;5.960;2023-05-10T11:43:05;16.50;97.50
77613;DHT22;66777;52.282;5.960;2023-05-10T11:45:35;16.50;97.50
77613;DHT22;66777;52.282;5.960;2023-05-10T11:48:02;16.50;97.40
77613;DHT22;66777;52.282;5.960;2023-05-10T11:50:28;16.40;97.30
77613;DHT22;66777;52.282;5.960;2023-05-10T11:52:55;16.30;97.60
77613;DHT22;66777;52.282;5.960;2023-05-10T11:55:22;16.40;97.70
77613;DHT22;66777;52.282;5.960;2023-05-10T11:57:52;16.80;98.00
77613;DHT22;66777;52.282;5.960;2023-05-10T12:00:18;17.00;97.90
77613;DHT22;66777;52.282;5.960;2023-05-10T12:02:44;17.20;97.80
77613;DHT22;66777;52.282;5.960;2023-05-10T12:05:11;17.20;97.80
77613;DHT22;66777;52.282;5.960;2023-05-10T12:07:39;17.20;97.60
77613;DHT22;66777;52.282;5.960;2023-05-10T12:10:11;17.00;97.50
77613;DHT22;66777;52.282;5.960;2023-05-10T12:12:52;16.90;97.50
77613;DHT22;66777;52.282;5.960;2023-05-10T12:15:22;16.80;97.40
77613;DHT22;66777;52.282;5.960;2023-05-10T12:17:50;16.70;97.50
77613;DHT22;66777;52.282;5.960;2023-05-10T12:20:20;16.50;97.50
77613;DHT22;66777;52.282;5.960;2023-05-10T12:25:15;15.90;97.60
77613;DHT22;66777;52.282;5.960;2023-05-10T12:27:41;15.80;97.70
77613;DHT22;66777;52.282;5.960;2023-05-10T12:30:13;15.80;97.70
77613;DHT22;66777;52.282;5.960;2023-05-10T12:32:44;15.90;97.80
77613;DHT22;66777;52.282;5.960;2023-05-10T12:35:10;16.00;97.70
77613;DHT22;66777;52.282;5.960;2023-05-10T12:37:36;16.00;97.70
77613;DHT22;66777;52.282;5.960;2023-05-10T12:40:08;16.00;97.70
77613;DHT22;66777;52.282;5.960;2023-05-10T12:42:36;15.90;97.70
77613;DHT22;66777;52.282;5.960;2023-05-10T12:45:02;15.80;97.70
77613;DHT22;66777;52.282;5.960;2023-05-10T12:47:29;15.80;97.70
77613;DHT22;66777;52.282;5.960;2023-05-10T12:49:55;16.00;97.70
77613;DHT22;66777;52.282;5.960;2023-05-10T12:52:21;16.20;97.80
77613;DHT22;66777;52.282;5.960;2023-05-10T12:54:47;16.40;97.80
77613;DHT22;66777;52.282;5.960;2023-05-10T12:57:13;16.50;97.70
77613;DHT22;66777;52.282;5.960;2023-05-10T12:59:39;16.60;97.70
77613;DHT22;66777;52.282;5.960;2023-05-10T13:02:06;16.80;97.70
77613;DHT22;66777;52.282;5.960;2023-05-10T13:04:32;17.00;97.80
77613;DHT22;66777;52.282;5.960;2023-05-10T13:06:57;17.40;97.80
77613;DHT22;66777;52.282;5.960;2023-05-10T13:09:27;17.80;97.70
77613;DHT22;66777;52.282;5.960;2023-05-10T13:11:55;18.00;97.00
77613;DHT22;66777;52.282;5.960;2023-05-10T13:14:22;18.40;97.20
77613;DHT22;66777;52.282;5.960;2023-05-10T13:16:48;18.20;97.00
77613;DHT22;66777;52.282;5.960;2023-05-10T13:19:16;18.20;97.00
77613;DHT22;66777;52.282;5.960;2023-05-10T13:21:42;18.30;96.90
77613;DHT22;66777;52.282;5.960;2023-05-10T13:24:09;18.20;97.10
77613;DHT22;66777;52.282;5.960;2023-05-10T13:26:36;18.30;97.20
77613;DHT22;66777;52.282;5.960;2023-05-10T13:29:03;17.90;96.90
77613;DHT22;66777;52.282;5.960;2023-05-10T13:31:29;17.80;96.90
77613;DHT22;66777;52.282;5.960;2023-05-10T13:33:55;17.50;96.80
77613;DHT22;66777;52.282;5.960;2023-05-10T13:36:21;17.40;97.00
77613;DHT22;66777;52.282;5.960;2023-05-10T13:38:49;17.20;96.80
77613;DHT22;66777;52.282;5.960;2023-05-10T13:41:15;17.00;97.10
77613;DHT22;66777;52.282;5.960;2023-05-10T13:43:41;16.80;96.80
77613;DHT22;66777;52.282;5.960;2023-05-10T13:46:07;16.60;96.90
77613;DHT22;66777;52.282;5.960;2023-05-10T13:48:33;16.70;97.20
77613;DHT22;66777;52.282;5.960;2023-05-10T13:50:59;16.70;97.00
77613;DHT22;66777;52.282;5.960;2023-05-10T13:53:25;16.90;97.30
77613;DHT22;66777;52.282;5.960;2023-05-10T13:55:51;17.10;97.40
77613;DHT22;66777;52.282;5.960;2023-05-10T13:58:17;17.00;97.00
77613;DHT22;66777;52.282;5.960;2023-05-10T14:00:43;17.00;97.10
77613;DHT22;66777;52.282;5.960;2023-05-10T14:03:09;17.20;97.20
77613;DHT22;66777;52.282;5.960;2023-05-10T14:05:36;17.50;97.30
77613;DHT22;66777;52.282;5.960;2023-05-10T14:08:03;17.90;97.20
77613;DHT22;66777;52.282;5.960;2023-05-10T14:10:29;17.80;96.90
77613;DHT22;66777;52.282;5.960;2023-05-10T14:12:55;17.80;97.10
77613;DHT22;66777;52.282;5.960;2023-05-10T14:15:21;17.80;97.20
77613;DHT22;66777;52.282;5.960;2023-05-10T14:17:48;17.80;97.20
77613;DHT22;66777;52.282;5.960;2023-05-10T14:20:15;17.80;97.20
77613;DHT22;66777;52.282;5.960;2023-05-10T14:22:41;17.60;97.10
77613;DHT22;66777;52.282;5.960;2023-05-10T14:25:08;17.60;97.30
77613;DHT22;66777;52.282;5.960;2023-05-10T14:27:34;17.90;97.40
77613;DHT22;66777;52.282;5.960;2023-05-10T14:30:00;18.20;97.40
77613;DHT22;66777;52.282;5.960;2023-05-10T14:32:25;18.30;97.20
77613;DHT22;66777;52.282;5.960;2023-05-10T14:34:53;18.10;97.10
77613;DHT22;66777;52.282;5.960;2023-05-10T14:37:18;18.00;97.00
77613;DHT22;66777;52.282;5.960;2023-05-10T14:39:44;17.80;97.20
77613;DHT22;66777;52.282;5.960;2023-05-10T14:42:10;17.60;97.30
77613;DHT22;66777;52.282;5.960;2023-05-10T14:44:36;17.50;97.40
77613;DHT22;66777;52.282;5.960;2023-05-10T14:47:02;17.80;97.50
77613;DHT22;66777;52.282;5.960;2023-05-10T14:49:29;18.00;97.60
77613;DHT22;66777;52.282;5.960;2023-05-10T14:51:54;18.10;97.40
77613;DHT22;66777;52.282;5.960;2023-05-10T14:54:20;18.10;97.20
77613;DHT22;66777;52.282;5.960;2023-05-10T14:56:46;18.10;97.20
77613;DHT22;66777;52.282;5.960;2023-05-10T14:59:15;18.00;96.90
77613;DHT22;66777;52.282;5.960;2023-05-10T15:01:42;18.00;97.00
77613;DHT22;66777;52.282;5.960;2023-05-10T15:04:08;18.00;97.10
77613;DHT22;66777;52.282;5.960;2023-05-10T15:06:35;18.00;97.10
77613;DHT22;66777;52.282;5.960;2023-05-10T15:09:02;18.00;97.10
77613;DHT22;66777;52.282;5.960;2023-05-10T15:11:29;18.00;97.10
77613;DHT22;66777;52.282;5.960;2023-05-10T15:13:55;17.80;97.00
77613;DHT22;66777;52.282;5.960;2023-05-10T15:16:21;17.60;97.20
77613;DHT22;66777;52.282;5.960;2023-05-10T15:18:48;17.40;97.10
77613;DHT22;66777;52.282;5.960;2023-05-10T15:21:14;17.30;97.30
77613;DHT22;66777;52.282;5.960;2023-05-10T15:23:40;17.20;97.10
77613;DHT22;66777;52.282;5.960;2023-05-10T15:26:07;17.30;97.10
77613;DHT22;66777;52.282;5.960;2023-05-10T15:28:33;17.50;97.00
77613;DHT22;66777;52.282;5.960;2023-05-10T15:31:00;17.20;96.90
77613;DHT22;66777;52.282;5.960;2023-05-10T15:33:27;17.10;96.60
77613;DHT22;66777;52.282;5.960;2023-05-10T15:35:53;17.00;96.60
77613;DHT22;66777;52.282;5.960;2023-05-10T15:38:20;16.80;96.40
77613;DHT22;66777;52.282;5.960;2023-05-10T15:40:45;16.80;96.60
77613;DHT22;66777;52.282;5.960;2023-05-10T15:43:11;16.70;96.40
77613;DHT22;66777;52.282;5.960;2023-05-10T15:45:37;16.60;96.40
77613;DHT22;66777;52.282;5.960;2023-05-10T15:48:04;16.60;96.60
77613;DHT22;66777;52.282;5.960;2023-05-10T15:50:30;16.50;96.40
77613;DHT22;66777;52.282;5.960;2023-05-10T15:52:56;16.40;96.30
77613;DHT22;66777;52.282;5.960;2023-05-10T15:55:22;16.40;96.40
77613;DHT22;66777;52.282;5.960;2023-05-10T15:57:49;16.40;96.50
77613;DHT22;66777;52.282;5.960;2023-05-10T16:00:16;16.20;96.40
77613;DHT22;66777;52.282;5.960;2023-05-10T16:02:43;16.10;96.60
77613;DHT22;66777;52.282;5.960;2023-05-10T16:05:09;16.00;96.50
77613;DHT22;66777;52.282;5.960;2023-05-10T16:07:37;15.90;96.10
77613;DHT22;66777;52.282;5.960;2023-05-10T16:10:05;15.70;96.10